Tompa, Hungary
Current Conditions -  °F | °C
As of 4:45 AM on Saturday 22 Nov 2014 (Local Time) from LHUD Reporting Station
Haze Haze  
Wind Chill: 39°   Ceiling: 3300
Heat Index: 39°   Visibility: 2.8mi
Dew Point: 37°   Wind: 0mph
Humidity: 93%   Direction: NA
Pressure: 30.3"   Gusts: NA
Location:  46.21°N, 19.54°E
Report Text: LHUD 220245Z 00000KT 4500 BR BKN033 04/03 Q1026
Loading
Personal Weather Stations






























Interactive Weather Map New forecast layout! Learn more

10-Day Weather Forecast

Advertisements
Track Severe Weather on mobile